Time;durP1;ratioP1;P1;durP2;ratioP2;P2;SDS_P1;SDS_P2;PMS_P1;PMS_P2;Temp;Humidity;BMP_temperature;BMP_pressure;BME280_temperature;BME280_humidity;BME280_pressure;Samples;Min_cycle;Max_cycle;Signal;HPM_P1;HPM_P2
2022/08/27 00:01:01;;;;;;;11.07;8.47;;;17.50;99.90;18.50;96428.00;;;;5011587;28;20228;-88
2022/08/27 00:03:50;;;;;;;13.40;8.17;;;17.40;99.90;18.50;96426.00;;;;5013526;28;20194;-88
2022/08/27 00:06:42;;;;;;;11.00;8.37;;;17.40;99.90;18.20;96420.00;;;;5008415;28;20625;-88
2022/08/27 00:09:31;;;;;;;15.73;7.97;;;17.30;99.90;18.10;96417.00;;;;4995126;28;20203;-88
2022/08/27 00:12:21;;;;;;;12.70;9.57;;;17.20;99.90;18.20;96421.00;;;;4999497;28;20202;-88
2022/08/27 00:15:14;;;;;;;16.90;9.50;;;17.20;99.90;18.40;96428.00;;;;5034410;28;20222;-89
2022/08/27 00:18:03;;;;;;;16.60;9.23;;;17.20;99.90;18.60;96429.00;;;;5024895;28;20209;-90
2022/08/27 00:20:52;;;;;;;11.30;8.77;;;17.30;99.90;18.70;96427.00;;;;5017823;28;20510;-90
2022/08/27 00:23:43;;;;;;;9.23;8.30;;;17.30;99.90;18.60;96421.00;;;;5013172;28;20679;-88
2022/08/27 00:26:32;;;;;;;11.57;10.10;;;17.30;99.90;18.50;96419.00;;;;5013690;28;20220;-88
2022/08/27 00:29:22;;;;;;;15.17;9.80;;;17.30;99.90;18.70;96413.00;;;;5007395;28;20685;-88
2022/08/27 00:32:11;;;;;;;12.80;9.57;;;17.40;99.90;18.90;96416.00;;;;5013170;28;20194;-90
2022/08/27 00:35:00;;;;;;;13.47;9.47;;;17.50;99.90;18.90;96413.00;;;;5020511;28;20692;-88
2022/08/27 00:37:49;;;;;;;13.10;9.00;;;17.50;99.90;18.60;96404.00;;;;5013212;28;20194;-88
2022/08/27 00:40:42;;;;;;;12.10;9.70;;;17.50;99.90;18.20;96413.00;;;;5014363;28;20488;-87
2022/08/27 00:43:45;;;;;;;14.57;9.47;;;17.40;99.90;18.00;96415.00;;;;5012745;28;20203;-89
2022/08/27 00:46:41;;;;;;;10.50;8.37;;;17.20;99.90;18.10;96422.00;;;;5012596;28;20208;-87
2022/08/27 00:49:37;;;;;;;16.60;8.90;;;17.10;99.90;17.90;96416.00;;;;5015962;28;20573;-87
2022/08/27 00:52:31;;;;;;;11.03;8.57;;;17.00;99.90;18.00;96416.00;;;;5021093;28;20232;-87
2022/08/27 00:55:25;;;;;;;12.30;8.70;;;17.00;99.90;18.50;96410.00;;;;5013103;28;20241;-88
2022/08/27 00:58:22;;;;;;;14.17;10.40;;;17.00;99.90;18.70;96414.00;;;;5014732;28;20602;-89
2022/08/27 01:01:17;;;;;;;14.03;10.17;;;17.20;99.90;18.90;96423.00;;;;5013802;28;20589;-91
2022/08/27 01:04:06;;;;;;;15.93;9.60;;;17.30;99.90;18.90;96422.00;;;;5028353;28;20228;-90
2022/08/27 01:06:55;;;;;;;10.07;8.53;;;17.50;99.90;19.10;96423.00;;;;5012486;28;20202;-91
2022/08/27 01:09:46;;;;;;;18.00;8.57;;;17.60;99.90;18.50;96422.00;;;;5013006;28;20198;-88
2022/08/27 01:12:38;;;;;;;11.93;8.50;;;17.50;99.90;18.20;96425.00;;;;5011651;28;20190;-87
2022/08/27 01:15:29;;;;;;;13.13;9.13;;;17.10;99.90;18.10;96434.00;;;;5012490;28;20228;-87
2022/08/27 01:18:19;;;;;;;19.37;9.93;;;17.20;99.90;17.90;96425.00;;;;5023786;28;20692;-88
2022/08/27 01:21:20;;;;;;;15.47;9.57;;;17.10;99.90;18.30;96440.00;;;;5028469;28;20231;-88
2022/08/27 01:24:30;;;;;;;15.93;9.83;;;17.10;99.90;18.40;96441.00;;;;5031861;28;20217;-88
2022/08/27 01:27:26;;;;;;;24.53;9.10;;;17.10;99.90;18.40;96448.00;;;;5030447;28;20209;-90
2022/08/27 01:30:19;;;;;;;17.10;10.00;;;17.10;99.90;18.70;96437.00;;;;5012083;28;20201;-88
2022/08/27 01:33:14;;;;;;;11.97;9.33;;;17.20;99.90;18.30;96442.00;;;;5020400;28;20577;-89
2022/08/27 01:36:03;;;;;;;11.40;8.20;;;17.30;99.90;18.10;96444.00;;;;5029802;28;20698;-88
2022/08/27 01:38:52;;;;;;;12.57;10.80;;;17.10;99.90;17.90;96443.00;;;;5032126;28;20210;-91
2022/08/27 01:41:43;;;;;;;10.47;8.40;;;17.10;99.90;18.20;96448.00;;;;5031462;28;20221;-88
2022/08/27 01:44:44;;;;;;;14.33;9.23;;;17.00;99.90;18.40;96440.00;;;;4996550;28;20716;-89
2022/08/27 01:47:34;;;;;;;12.67;10.53;;;17.00;99.90;18.30;96434.00;;;;5012470;28;20194;-90
2022/08/27 01:50:30;;;;;;;18.07;9.60;;;17.10;99.90;18.10;96428.00;;;;5018947;28;20695;-91
2022/08/27 01:53:24;;;;;;;12.97;8.73;;;17.00;99.90;18.20;96434.00;;;;5032201;28;20259;-87
2022/08/27 01:56:14;;;;;;;12.80;9.07;;;17.00;99.90;18.30;96426.00;;;;5031448;28;20212;-89
2022/08/27 01:59:04;;;;;;;12.37;9.20;;;17.00;99.90;18.20;96428.00;;;;5030710;28;20205;-89
2022/08/27 02:01:55;;;;;;;10.23;9.17;;;17.00;99.90;18.00;96430.00;;;;5029669;28;20233;-88
2022/08/27 02:04:44;;;;;;;12.80;10.87;;;17.00;99.90;18.00;96424.00;;;;5011183;28;20210;-87
2022/08/27 02:07:33;;;;;;;12.67;9.27;;;16.90;99.90;18.20;96423.00;;;;5010461;28;20202;-88
2022/08/27 02:10:26;;;;;;;11.30;9.40;;;16.90;99.90;17.90;96422.00;;;;5007393;28;20205;-87
2022/08/27 02:13:15;;;;;;;14.40;9.43;;;16.90;99.90;18.00;96429.00;;;;5011883;28;20224;-87
2022/08/27 02:16:06;;;;;;;11.77;9.07;;;16.80;99.90;17.90;96422.00;;;;5016649;28;20582;-87
2022/08/27 02:18:55;;;;;;;12.23;10.17;;;16.80;99.90;17.90;96418.00;;;;5027961;28;20255;-88
2022/08/27 02:21:44;;;;;;;13.27;10.27;;;16.80;99.90;17.90;96418.00;;;;5011203;28;20210;-87
2022/08/27 02:24:33;;;;;;;12.20;9.17;;;16.80;99.90;17.60;96424.00;;;;5022464;28;20229;-89
2022/08/27 02:27:23;;;;;;;13.20;9.37;;;16.80;99.90;17.60;96420.00;;;;5031671;28;20197;-86
2022/08/27 02:30:16;;;;;;;10.77;9.17;;;16.70;99.90;17.50;96416.00;;;;5015736;28;20209;-87
2022/08/27 02:33:07;;;;;;;14.20;10.47;;;16.60;99.90;17.70;96420.00;;;;5021576;28;20220;-87
2022/08/27 02:35:56;;;;;;;12.83;10.10;;;16.60;99.90;17.70;96423.00;;;;5014852;28;20218;-87
2022/08/27 02:38:48;;;;;;;15.17;10.20;;;16.60;99.90;17.40;96416.00;;;;5010798;28;20244;-87
2022/08/27 02:41:37;;;;;;;11.97;9.80;;;16.60;99.90;17.40;96419.00;;;;5011150;28;20579;-87
2022/08/27 02:44:27;;;;;;;16.17;10.63;;;16.50;99.90;17.20;96420.00;;;;4994191;28;20218;-88
2022/08/27 02:47:17;;;;;;;11.90;10.17;;;16.40;99.90;17.10;96419.00;;;;4994058;28;20206;-89
2022/08/27 02:50:09;;;;;;;14.27;11.10;;;16.40;99.90;17.60;96430.00;;;;4992142;28;20245;-87
2022/08/27 02:52:58;;;;;;;13.00;9.77;;;16.40;99.90;17.80;96429.00;;;;4992583;28;20634;-89
2022/08/27 02:55:49;;;;;;;17.43;11.73;;;16.40;99.90;17.90;96431.00;;;;4991369;28;20219;-89
2022/08/27 02:58:40;;;;;;;12.37;11.07;;;16.50;99.90;18.10;96431.00;;;;5007334;28;20589;-88
2022/08/27 03:01:29;;;;;;;16.60;9.07;;;16.60;99.90;18.30;96435.00;;;;4991152;28;20230;-88
2022/08/27 03:04:19;;;;;;;13.33;10.53;;;16.70;99.90;18.40;96439.00;;;;4992071;28;20222;-87
2022/08/27 03:07:09;;;;;;;18.53;10.33;;;16.90;99.90;18.50;96430.00;;;;4990367;28;20202;-87
2022/08/27 03:09:58;;;;;;;12.50;9.30;;;16.90;99.90;18.20;96431.00;;;;4991754;28;20210;-88
2022/08/27 03:12:48;;;;;;;12.93;9.30;;;17.00;99.90;18.10;96429.00;;;;5005517;28;20548;-87
2022/08/27 03:15:37;;;;;;;13.13;9.90;;;17.00;99.90;18.00;96434.00;;;;5018364;28;20711;-88
2022/08/27 03:18:26;;;;;;;14.20;9.30;;;16.90;99.90;18.20;96424.00;;;;5030645;28;20573;-89
2022/08/27 03:21:18;;;;;;;14.07;9.37;;;16.90;99.90;17.90;96425.00;;;;4991764;28;20225;-89
2022/08/27 03:24:09;;;;;;;14.47;9.00;;;16.80;99.90;17.60;96431.00;;;;4990163;28;20638;-88
2022/08/27 03:27:00;;;;;;;16.27;10.63;;;16.80;99.90;17.60;96422.00;;;;4994938;28;20199;-90
2022/08/27 03:29:49;;;;;;;11.93;9.67;;;16.70;99.90;17.60;96427.00;;;;5013985;28;20200;-89
2022/08/27 03:32:39;;;;;;;16.03;10.40;;;16.60;99.90;17.60;96418.00;;;;5011786;28;20198;-87
2022/08/27 03:35:28;;;;;;;13.67;9.70;;;16.60;99.90;17.70;96420.00;;;;5022965;28;20218;-88
2022/08/27 03:38:17;;;;;;;17.87;10.47;;;16.60;99.90;17.80;96408.00;;;;5030441;28;20219;-89
2022/08/27 03:41:08;;;;;;;15.10;10.53;;;16.60;99.90;17.90;96411.00;;;;5029656;28;20546;-88
2022/08/27 03:43:58;;;;;;;13.53;9.47;;;16.60;99.90;17.60;96415.00;;;;4990435;28;20226;-89
2022/08/27 03:46:47;;;;;;;13.20;10.13;;;16.50;99.90;17.30;96401.00;;;;4990206;28;20627;-89
2022/08/27 03:49:36;;;;;;;12.03;10.57;;;16.50;99.90;17.20;96410.00;;;;5024468;28;20198;-87
2022/08/27 03:52:31;;;;;;;12.60;11.23;;;16.40;99.90;17.10;96401.00;;;;5039414;28;20579;-87
2022/08/27 03:55:23;;;;;;;13.20;10.77;;;16.30;99.90;17.50;96413.00;;;;5033683;28;20592;-87
2022/08/27 03:58:13;;;;;;;18.83;11.13;;;16.30;99.90;17.50;96413.00;;;;5021728;28;20221;-89
2022/08/27 04:01:03;;;;;;;16.77;13.83;;;16.30;99.90;17.40;96412.00;;;;5013789;28;20206;-87
2022/08/27 04:03:52;;;;;;;15.53;10.17;;;16.30;99.90;17.20;96407.00;;;;5030786;23;20221;-70
2022/08/27 04:06:41;;;;;;;12.53;9.93;;;16.20;99.90;17.30;96408.00;;;;4991271;28;20225;-69
2022/08/27 04:09:30;;;;;;;11.30;10.10;;;16.20;99.90;17.50;96410.00;;;;4997726;28;20685;-71
2022/08/27 04:12:19;;;;;;;12.60;10.60;;;16.20;99.90;17.60;96414.00;;;;4986496;28;20198;-72
2022/08/27 04:15:12;;;;;;;15.93;10.57;;;16.30;99.90;17.70;96418.00;;;;4999002;28;20708;-71
2022/08/27 04:18:01;;;;;;;14.60;9.90;;;16.40;99.90;17.70;96420.00;;;;4998171;28;20214;-70
2022/08/27 04:20:52;;;;;;;15.13;10.23;;;16.50;99.90;17.80;96410.00;;;;4987460;28;20202;-71
2022/08/27 04:23:42;;;;;;;15.10;9.47;;;16.50;99.90;17.70;96411.00;;;;4991288;28;20206;-71
2022/08/27 04:26:31;;;;;;;14.23;11.10;;;16.50;99.90;17.40;96414.00;;;;4990175;28;20206;-72
2022/08/27 04:29:20;;;;;;;14.93;11.27;;;16.40;99.90;17.50;96413.00;;;;4979592;28;20217;-72
2022/08/27 04:32:10;;;;;;;13.20;9.77;;;16.40;99.90;17.60;96415.00;;;;4986181;28;20234;-72
2022/08/27 04:35:01;;;;;;;19.40;10.63;;;16.40;99.90;17.90;96408.00;;;;5007471;28;20236;-71
2022/08/27 04:37:49;;;;;;;15.20;11.37;;;16.40;99.90;17.70;96414.00;;;;5008260;28;20325;-72
2022/08/27 04:43:45;;;;;;;18.73;10.67;;;16.40;99.90;17.30;96414.00;;;;4987553;28;20203;-70
2022/08/27 04:46:38;;;;;;;18.50;10.53;;;16.40;99.90;17.30;96413.00;;;;4991368;28;20206;-70
2022/08/27 04:49:29;;;;;;;12.87;11.23;;;16.30;99.90;17.60;96419.00;;;;4984778;28;20198;-70
2022/08/27 04:52:18;;;;;;;19.90;11.27;;;16.30;99.90;17.80;96419.00;;;;4989904;28;20222;-70
2022/08/27 04:55:09;;;;;;;13.97;11.37;;;16.40;99.90;17.90;96423.00;;;;4991433;28;20733;-71
2022/08/27 04:57:58;;;;;;;13.80;12.33;;;16.40;99.90;17.70;96421.00;;;;4993804;28;20214;-70
2022/08/27 05:00:51;;;;;;;14.50;11.27;;;16.50;99.90;17.80;96411.00;;;;5010673;28;20198;-70
2022/08/27 05:03:40;;;;;;;19.27;12.07;;;16.50;99.90;18.00;96416.00;;;;5010362;28;20220;-70
2022/08/27 05:06:30;;;;;;;11.87;10.57;;;16.60;99.90;18.10;96413.00;;;;4991387;28;20199;-70
2022/08/27 05:09:19;;;;;;;15.83;12.00;;;16.70;99.90;18.30;96415.00;;;;4952978;29;20923;-70
2022/08/27 05:12:08;;;;;;;12.80;11.13;;;16.80;99.90;18.20;96424.00;;;;4957064;28;21170;-71
2022/08/27 05:14:57;;;;;;;14.57;10.50;;;16.90;99.90;17.80;96418.00;;;;4990827;28;20222;-74
2022/08/27 05:17:46;;;;;;;11.40;10.30;;;16.90;99.90;18.20;96422.00;;;;4987825;28;20225;-71
2022/08/27 05:20:42;;;;;;;14.73;10.13;;;16.90;99.90;18.20;96419.00;;;;4975054;28;20207;-71
2022/08/27 05:23:34;;;;;;;13.17;10.70;;;17.00;99.90;18.20;96409.00;;;;4969281;28;20584;-73
2022/08/27 05:26:23;;;;;;;12.03;10.37;;;17.00;99.90;18.30;96419.00;;;;4971959;28;20816;-70
2022/08/27 05:29:13;;;;;;;13.27;9.57;;;17.00;99.90;18.20;96418.00;;;;4972061;28;20585;-70
2022/08/27 05:32:02;;;;;;;14.43;10.40;;;17.10;99.90;18.40;96414.00;;;;4968964;28;20586;-73
2022/08/27 05:34:50;;;;;;;13.00;10.80;;;17.10;99.90;18.70;96412.00;;;;4990882;28;20218;-72
2022/08/27 05:37:39;;;;;;;15.00;9.30;;;17.30;99.90;19.00;96420.00;;;;4990442;28;20214;-72
2022/08/27 05:40:29;;;;;;;9.53;8.23;;;17.40;99.90;19.00;96418.00;;;;4991019;28;20199;-70
2022/08/27 05:43:19;;;;;;;12.80;9.93;;;17.50;99.90;19.10;96413.00;;;;4971355;28;20199;-70
2022/08/27 05:46:12;;;;;;;15.97;9.67;;;17.70;99.90;19.40;96420.00;;;;4971514;28;20219;-71
2022/08/27 05:49:01;;;;;;;11.07;8.87;;;17.80;99.90;19.60;96425.00;;;;4988255;28;20210;-71
2022/08/27 05:51:50;;;;;;;13.47;9.63;;;17.90;99.90;19.60;96419.00;;;;4989632;28;20199;-72
2022/08/27 05:54:39;;;;;;;13.83;9.43;;;18.10;99.90;19.80;96417.00;;;;4990774;28;20230;-70
2022/08/27 05:57:29;;;;;;;14.27;9.53;;;18.30;99.90;19.90;96422.00;;;;4984694;28;20674;-71
2022/08/27 06:03:25;;;;;;;14.27;10.73;;;18.50;99.90;20.40;96410.00;;;;4981921;28;20213;-70
2022/08/27 06:06:13;;;;;;;11.33;10.20;;;18.70;99.90;20.40;96419.00;;;;5003960;28;20222;-70
2022/08/27 06:09:03;;;;;;;15.20;8.97;;;18.80;99.90;20.50;96421.00;;;;4991817;28;20206;-70
2022/08/27 06:11:54;;;;;;;10.87;8.80;;;18.90;99.90;20.60;96411.00;;;;4992036;28;20222;-72
2022/08/27 06:14:44;;;;;;;11.30;8.73;;;19.10;99.90;20.60;96414.00;;;;4991541;28;20226;-70
2022/08/27 06:17:33;;;;;;;11.57;8.93;;;19.20;99.90;20.90;96419.00;;;;4991217;28;20203;-71
2022/08/27 06:20:22;;;;;;;12.00;8.87;;;19.30;99.90;21.10;96421.00;;;;4990247;28;20210;-71
2022/08/27 06:23:11;;;;;;;14.23;8.47;;;19.50;99.90;21.30;96418.00;;;;4989295;28;20225;-71
2022/08/27 06:26:00;;;;;;;13.37;8.77;;;19.60;99.90;21.70;96424.00;;;;4994458;28;20893;-71
2022/08/27 06:28:50;;;;;;;12.77;8.50;;;19.80;99.90;21.90;96419.00;;;;4981285;28;21211;-70
2022/08/27 06:31:41;;;;;;;10.03;8.13;;;20.00;99.90;22.30;96430.00;;;;5000590;28;20201;-71
2022/08/27 06:34:30;;;;;;;12.97;9.23;;;20.20;99.90;22.60;96422.00;;;;4999177;28;20237;-71
2022/08/27 06:37:19;;;;;;;13.00;8.53;;;20.40;99.90;22.80;96427.00;;;;4992131;28;20195;-71
2022/08/27 06:40:10;;;;;;;9.17;7.57;;;20.70;99.90;23.10;96423.00;;;;4993034;28;20226;-72
2022/08/27 06:42:59;;;;;;;13.97;8.17;;;20.90;99.90;23.20;96421.00;;;;4987091;28;20194;-71
2022/08/27 06:45:48;;;;;;;8.33;7.30;;;21.10;99.90;23.50;96427.00;;;;5004307;28;20223;-71
2022/08/27 06:48:43;;;;;;;8.67;7.00;;;21.30;99.90;23.50;96421.00;;;;4988583;28;20253;-71
2022/08/27 06:51:35;;;;;;;8.60;7.60;;;21.50;99.90;23.70;96428.00;;;;4988184;28;20210;-71
2022/08/27 06:54:24;;;;;;;11.37;6.83;;;21.70;99.90;23.90;96434.00;;;;4987562;28;20229;-70
2022/08/27 06:57:12;;;;;;;9.30;7.27;;;21.90;99.90;24.00;96430.00;;;;4991468;28;20202;-71
2022/08/27 07:00:02;;;;;;;10.73;7.37;;;22.10;99.90;24.20;96431.00;;;;4998679;28;20205;-71
2022/08/27 07:02:52;;;;;;;10.67;7.90;;;22.20;99.90;24.30;96423.00;;;;4985338;28;20206;-71
2022/08/27 07:05:42;;;;;;;9.17;6.53;;;22.30;99.90;24.40;96427.00;;;;4988988;28;20676;-71
2022/08/27 07:08:31;;;;;;;9.70;6.67;;;22.50;99.90;24.60;96429.00;;;;4989581;28;20226;-70
2022/08/27 07:11:21;;;;;;;9.90;7.23;;;22.70;99.90;24.80;96430.00;;;;4983273;28;20202;-70
2022/08/27 07:14:10;;;;;;;8.50;6.70;;;22.80;99.90;25.00;96430.00;;;;4996878;28;20230;-71
2022/08/27 07:16:59;;;;;;;11.50;6.67;;;22.90;99.90;25.20;96433.00;;;;4999499;28;20205;-71
2022/08/27 07:19:48;;;;;;;6.70;6.00;;;23.10;99.90;25.30;96441.00;;;;4985704;28;20764;-71
2022/08/27 07:22:40;;;;;;;7.70;6.13;;;23.30;99.90;25.40;96429.00;;;;4986583;28;20674;-71
2022/08/27 07:25:30;;;;;;;7.73;6.87;;;23.40;99.90;25.60;96432.00;;;;4997125;28;20218;-71
2022/08/27 07:28:19;;;;;;;7.40;6.37;;;23.60;99.90;25.70;96437.00;;;;4991596;28;20229;-72
2022/08/27 07:31:11;;;;;;;13.33;6.63;;;23.70;99.90;26.00;96441.00;;;;4995547;28;20215;-71
2022/08/27 07:34:00;;;;;;;10.17;6.40;;;23.90;99.90;26.10;96440.00;;;;4996780;28;20329;-71
2022/08/27 07:36:50;;;;;;;7.83;6.17;;;24.00;99.90;26.20;96440.00;;;;4998083;28;20211;-71
2022/08/27 07:39:41;;;;;;;7.53;6.03;;;24.20;99.90;26.30;96435.00;;;;5009012;28;20202;-71
2022/08/27 07:45:45;;;;;;;10.00;6.87;;;24.40;99.90;26.10;96439.00;;;;5032539;23;20614;-89
2022/08/27 07:48:34;;;;;;;11.23;6.13;;;24.50;99.90;26.40;96436.00;;;;5036437;28;20201;-87
2022/08/27 07:51:26;;;;;;;7.53;6.17;;;24.60;99.90;26.70;96434.00;;;;5047446;28;20223;-88
2022/08/27 07:54:15;;;;;;;6.37;5.73;;;24.70;99.90;27.00;96436.00;;;;5042837;28;20221;-88
2022/08/27 08:00:23;;;;;;;11.20;6.27;;;25.00;99.90;27.00;96435.00;;;;4950692;28;20211;-88
2022/08/27 08:03:12;;;;;;;8.33;6.07;;;25.20;99.90;27.20;96439.00;;;;4948820;28;20685;-88
2022/08/27 08:06:04;;;;;;;8.60;6.93;;;25.20;99.90;27.50;96433.00;;;;4969652;28;20216;-87
2022/08/27 08:08:53;;;;;;;7.20;5.63;;;25.40;99.90;27.80;96440.00;;;;4972821;28;20201;-88
2022/08/27 08:11:42;;;;;;;9.37;6.60;;;25.60;99.90;28.00;96443.00;;;;4971848;28;20203;-87
2022/08/27 08:14:33;;;;;;;8.10;6.30;;;25.80;99.90;28.30;96444.00;;;;4960363;28;20235;-88
2022/08/27 08:17:22;;;;;;;7.70;6.50;;;26.00;99.90;28.40;96449.00;;;;4975571;28;20667;-89
2022/08/27 08:20:12;;;;;;;9.50;7.13;;;26.20;99.90;28.70;96441.00;;;;4975412;28;20217;-88
2022/08/27 08:23:09;;;;;;;6.17;5.40;;;26.50;99.90;28.90;96452.00;;;;4969913;28;20583;-89
2022/08/27 08:25:58;;;;;;;9.50;7.03;;;26.70;99.90;29.30;96449.00;;;;4972847;28;20229;-89
2022/08/27 08:28:47;;;;;;;6.87;5.73;;;26.90;99.90;29.50;96458.00;;;;4975653;28;20220;-88
2022/08/27 08:31:38;;;;;;;6.77;6.03;;;27.10;99.90;29.70;96458.00;;;;4976233;28;20198;-89
2022/08/27 08:34:27;;;;;;;9.13;6.27;;;27.40;99.90;29.50;96462.00;;;;4974541;28;20230;-89
2022/08/27 08:37:16;;;;;;;11.17;6.40;;;27.50;99.90;28.50;96455.00;;;;4971326;28;20221;-88
2022/08/27 08:40:07;;;;;;;7.70;5.60;;;27.50;99.90;28.90;96458.00;;;;4975521;28;20212;-89
2022/08/27 08:42:56;;;;;;;8.10;5.93;;;27.40;99.90;29.20;96457.00;;;;4975305;28;20206;-89
2022/08/27 08:45:46;;;;;;;13.17;6.60;;;27.40;99.90;29.80;96456.00;;;;4972778;28;20235;-90
2022/08/27 08:48:41;;;;;;;5.87;5.37;;;27.60;99.90;30.10;96459.00;;;;4976960;28;20680;-89
2022/08/27 08:51:37;;;;;;;6.87;5.97;;;27.80;99.90;30.30;96452.00;;;;4974974;28;20207;-88
2022/08/27 08:54:30;;;;;;;12.37;5.30;;;28.00;99.90;30.60;96448.00;;;;4976759;28;20737;-89
2022/08/27 08:57:26;;;;;;;11.87;6.33;;;28.30;99.90;30.60;96453.00;;;;4979202;28;20205;-88
2022/08/27 09:00:16;;;;;;;6.60;5.87;;;28.50;99.90;31.00;96453.00;;;;5011740;28;20204;-89
2022/08/27 09:03:05;;;;;;;9.35;6.07;;;28.70;99.90;31.40;96443.00;;;;5010455;28;20211;-89
2022/08/27 09:06:01;;;;;;;8.50;5.95;;;29.00;99.90;31.50;96440.00;;;;5016780;28;20488;-89
2022/08/27 09:08:50;;;;;;;14.82;7.03;;;29.20;99.90;31.20;96441.00;;;;5014142;28;20197;-89
2022/08/27 09:11:46;;;;;;;10.38;6.60;;;29.30;99.90;29.90;96441.00;;;;5005149;28;20204;-89
2022/08/27 09:14:40;;;;;;;13.90;6.22;;;29.10;99.90;30.50;96445.00;;;;5012238;28;20226;-87
2022/08/27 09:17:29;;;;;;;10.73;5.35;;;29.00;99.90;31.50;96440.00;;;;5029194;28;20200;-89
2022/08/27 09:20:21;;;;;;;9.88;5.43;;;29.20;99.90;31.40;96441.00;;;;5032458;28;20220;-88
2022/08/27 09:23:18;;;;;;;9.32;5.13;;;29.30;99.90;31.30;96437.00;;;;5021031;28;20234;-88
2022/08/27 09:26:19;;;;;;;10.25;5.53;;;29.40;99.70;31.70;96439.00;;;;5013100;28;20225;-87
2022/08/27 09:29:15;;;;;;;9.93;5.47;;;29.60;99.90;32.00;96440.00;;;;5009570;28;20216;-87
2022/08/27 09:32:07;;;;;;;7.72;5.22;;;29.70;99.90;30.40;96438.00;;;;5010217;28;20211;-86
2022/08/27 09:34:59;;;;;;;11.60;5.15;;;29.70;97.60;29.10;96442.00;;;;5005419;28;20250;-87
2022/08/27 09:37:52;;;;;;;8.90;6.43;;;29.10;97.50;28.60;96439.00;;;;5011437;28;20202;-87
2022/08/27 09:40:49;;;;;;;10.60;6.30;;;28.40;98.70;28.10;96436.00;;;;5017432;28;20692;-87
2022/08/27 09:43:42;;;;;;;9.53;6.30;;;27.70;99.60;27.70;96442.00;;;;5031483;28;20210;-87
2022/08/27 09:46:31;;;;;;;9.47;5.27;;;27.20;99.90;27.80;96446.00;;;;5043725;28;20223;-90
2022/08/27 09:49:21;;;;;;;15.43;7.10;;;26.90;99.90;27.50;96450.00;;;;5014606;28;20212;-87
2022/08/27 09:52:18;;;;;;;10.17;6.37;;;26.70;99.90;27.30;96458.00;;;;5012679;28;20213;-88
2022/08/27 09:55:07;;;;;;;14.77;6.83;;;26.40;99.90;27.10;96466.00;;;;5005845;28;20229;-87
2022/08/27 09:58:20;;;;;;;19.03;7.73;;;26.20;99.90;27.00;96461.00;;;;5005771;28;20221;-89
2022/08/27 10:01:19;;;;;;;9.97;5.80;;;26.00;99.90;26.90;96457.00;;;;5007330;28;20216;-90
2022/08/27 10:04:15;;;;;;;8.33;6.27;;;25.90;99.90;26.70;96455.00;;;;5009167;28;20196;-89
2022/08/27 10:07:24;;;;;;;9.93;6.53;;;25.40;99.90;26.80;96453.00;;;;5009975;28;20636;-88
2022/08/27 10:10:20;;;;;;;11.73;6.27;;;25.70;99.90;26.80;96455.00;;;;5009670;28;20511;-90
2022/08/27 10:13:22;;;;;;;11.10;7.30;;;25.70;99.90;26.70;96449.00;;;;5009069;28;20204;-89
2022/08/27 10:16:56;;;;;;;11.07;7.37;;;25.70;99.90;26.90;96439.00;;;;5008522;28;20850;-89
2022/08/27 10:20:07;;;;;;;9.27;6.50;;;25.80;99.90;27.30;96438.00;;;;5002109;28;20246;-88
2022/08/27 10:23:12;;;;;;;9.30;7.20;;;25.80;99.90;27.10;96430.00;;;;5009457;28;20597;-90
2022/08/27 10:26:09;;;;;;;7.67;6.23;;;26.00;99.90;27.70;96428.00;;;;5007081;28;20226;-90
2022/08/27 10:29:12;;;;;;;13.00;6.50;;;26.10;99.90;27.60;96414.00;;;;5011517;28;20553;-87
2022/08/27 10:32:14;;;;;;;9.00;6.30;;;26.20;99.90;27.80;96406.00;;;;5005677;28;20234;-89
2022/08/27 10:35:14;;;;;;;13.00;6.43;;;26.40;99.90;28.10;96397.00;;;;5010310;28;20230;-90
2022/08/27 10:38:14;;;;;;;8.33;6.57;;;26.60;99.90;28.00;96400.00;;;;5007746;28;20695;-88
2022/08/27 10:41:16;;;;;;;8.10;6.13;;;26.50;99.90;28.00;96398.00;;;;5010058;28;20272;-88
2022/08/27 10:44:46;;;;;;;10.60;6.90;;;26.50;99.90;28.10;96392.00;;;;5006751;28;20197;-88
2022/08/27 10:47:56;;;;;;;9.67;6.80;;;26.60;99.90;28.40;96373.00;;;;5011344;28;20200;-88
2022/08/27 10:50:53;;;;;;;15.07;7.47;;;26.70;99.90;28.60;96363.00;;;;5009335;28;20228;-88
2022/08/27 10:53:50;;;;;;;11.03;6.10;;;26.80;99.90;29.10;96370.00;;;;5008367;28;20532;-87
2022/08/27 10:56:46;;;;;;;12.17;6.70;;;27.00;99.90;28.50;96372.00;;;;5011115;28;20223;-88
2022/08/27 10:59:47;;;;;;;10.60;7.43;;;27.10;99.90;28.70;96381.00;;;;5001984;28;20702;-89
2022/08/27 11:02:42;;;;;;;13.27;6.13;;;27.10;99.90;28.60;96400.00;;;;5005971;28;20205;-88
2022/08/27 11:05:36;;;;;;;11.27;6.23;;;27.10;99.90;28.50;96400.00;;;;5012303;28;20228;-89
2022/08/27 11:08:34;;;;;;;12.30;6.57;;;27.10;99.90;28.20;96409.00;;;;5011328;28;20194;-90
2022/08/27 11:11:33;;;;;;;13.00;6.40;;;27.00;99.90;28.00;96410.00;;;;5005154;28;20194;-87
2022/08/27 11:14:52;;;;;;;20.67;7.47;;;26.90;99.90;27.80;96397.00;;;;5009471;28;20607;-88
2022/08/27 11:17:48;;;;;;;8.87;5.87;;;26.80;99.90;28.00;96394.00;;;;5011660;28;20206;-87
2022/08/27 11:20:59;;;;;;;9.67;5.87;;;26.80;99.90;28.30;96388.00;;;;5010607;28;20197;-88
2022/08/27 11:23:55;;;;;;;10.80;5.80;;;26.90;99.90;29.00;96401.00;;;;5009644;28;20202;-87
2022/08/27 11:26:47;;;;;;;8.70;7.13;;;27.10;99.90;29.30;96389.00;;;;5000093;28;20195;-90
2022/08/27 11:29:50;;;;;;;9.83;6.80;;;27.40;99.90;29.40;96399.00;;;;5005162;28;20226;-88
2022/08/27 11:32:50;;;;;;;11.23;5.73;;;27.60;99.90;29.90;96409.00;;;;5000469;28;20398;-89
2022/08/27 11:35:53;;;;;;;11.10;4.97;;;27.90;99.90;30.80;96398.00;;;;5012464;28;20225;-89
2022/08/27 11:38:53;;;;;;;10.90;5.13;;;28.10;99.90;30.50;96395.00;;;;5010395;28;20196;-88
2022/08/27 11:42:01;;;;;;;10.40;5.83;;;28.30;99.90;30.70;96378.00;;;;5010758;28;20199;-87
2022/08/27 11:44:57;;;;;;;10.43;6.00;;;28.60;99.30;31.40;96375.00;;;;5006017;28;20224;-90
2022/08/27 11:47:53;;;;;;;9.40;5.37;;;29.00;98.80;31.30;96363.00;;;;5010435;28;20207;-90
2022/08/27 11:50:56;;;;;;;11.23;5.33;;;29.30;97.20;33.00;96344.00;;;;5009362;28;20197;-88
2022/08/27 11:54:00;;;;;;;14.03;5.17;;;29.80;97.20;32.90;96345.00;;;;5007824;28;20198;-88
2022/08/27 11:56:50;;;;;;;12.38;5.95;;;30.40;96.20;33.00;96328.00;;;;5010633;28;20203;-89
2022/08/27 11:59:42;;;;;;;12.10;6.35;;;30.90;95.50;34.20;96331.00;;;;5009767;28;20212;-88
2022/08/27 12:02:32;;;;;;;8.27;5.88;;;31.40;95.60;35.60;96323.00;;;;5006837;28;20202;-89
2022/08/27 12:05:33;;;;;;;12.25;5.32;;;32.00;95.30;35.60;96345.00;;;;4995919;28;20306;-88
2022/08/27 12:08:35;;;;;;;10.77;5.95;;;32.50;94.60;33.90;96338.00;;;;5009697;28;20230;-89
2022/08/27 12:11:38;;;;;;;10.45;5.93;;;32.70;90.90;34.30;96365.00;;;;5012784;28;20228;-89
2022/08/27 12:14:42;;;;;;;7.80;4.35;;;32.60;90.00;33.40;96365.00;;;;5018900;28;20292;-88
2022/08/27 12:17:40;;;;;;;11.20;5.20;;;32.40;90.40;34.70;96304.00;;;;5010611;28;20679;-89
2022/08/27 12:20:45;;;;;;;13.77;5.60;;;32.50;90.00;36.50;96303.00;;;;5011305;28;20194;-89
2022/08/27 12:23:49;;;;;;;7.60;5.18;;;33.00;90.70;36.00;96347.00;;;;5005923;28;20209;-89
2022/08/27 12:26:42;;;;;;;9.68;4.85;;;33.40;89.20;35.20;96350.00;;;;4996512;28;20218;-89
2022/08/27 12:29:39;;;;;;;8.00;5.28;;;33.30;87.00;36.90;96282.00;;;;5009934;28;20201;-91
2022/08/27 12:32:34;;;;;;;19.85;6.50;;;33.60;87.00;35.80;96283.00;;;;5004670;28;20205;-89
2022/08/27 12:35:31;;;;;;;25.55;11.68;;;33.80;82.50;37.30;96293.00;;;;5010680;28;20232;-90
2022/08/27 12:38:26;;;;;;;13.70;5.97;;;34.30;85.10;35.50;96334.00;;;;5007726;28;20213;-89
2022/08/27 12:41:28;;;;;;;8.50;5.18;;;34.30;80.20;36.40;96290.00;;;;4997588;28;20573;-90
2022/08/27 12:44:26;;;;;;;11.50;5.32;;;34.20;80.20;35.30;96291.00;;;;5008497;28;20198;-89
2022/08/27 12:47:16;;;;;;;8.20;5.78;;;34.20;76.30;36.90;96287.00;;;;5011569;28;20228;-88
2022/08/27 12:50:08;;;;;;;8.00;5.40;;;34.30;77.40;35.90;96336.00;;;;5008655;28;20940;-89
2022/08/27 12:53:43;;;;;;;13.60;7.07;;;34.40;74.00;35.80;96342.00;;;;5011229;28;20209;-90